NKS743 KLAS-KDFW
Flight info
| Callsign | NKS743 |
|---|---|
| Flight time | N/A |
| Altitude | 39000 |
| Route | NIITZ4 SSKEE GUP J72 TXO TURKI JOVEM6 |
| Aircraft | A20N/M-SDE2E3FGHIRWXY/LB1 |
Departure
| Time | 2026-05-07 01:09 |
|---|---|
| Airport | Harry Reid International Airport (KLAS) |
Arrival
| Time | N/A |
|---|---|
| Airport | Dallas Fort Worth International Airport (KDFW) |
| Time | Latitude | Longitude | Altitude | Speed | Heading |
|---|---|---|---|---|---|
| 2026-05-07 00:30 | 36.08540 | -115.15492 | 2101 ft | 0 kts | 106° |
| 2026-05-07 00:54 | 36.08543 | -115.15505 | 2101 ft | 4 kts | 106° |
| 2026-05-07 00:54 | 36.08551 | -115.15537 | 2102 ft | 4 kts | 108° |
| 2026-05-07 00:55 | 36.08559 | -115.15568 | 2102 ft | 3 kts | 106° |
| 2026-05-07 00:55 | 36.08567 | -115.15593 | 2104 ft | 4 kts | 149° |
| 2026-05-07 00:55 | 36.08587 | -115.15592 | 2105 ft | 4 kts | 211° |
| 2026-05-07 00:55 | 36.08607 | -115.15577 | 2104 ft | 1 kts | 204° |
| 2026-05-07 00:56 | 36.08608 | -115.15577 | 2104 ft | 0 kts | 204° |
| 2026-05-07 00:59 | 36.08550 | -115.15604 | 2103 ft | 20 kts | 188° |
| 2026-05-07 00:59 | 36.08422 | -115.15548 | 2102 ft | 20 kts | 155° |
| 2026-05-07 01:00 | 36.08331 | -115.15558 | 2102 ft | 12 kts | 214° |
| 2026-05-07 01:00 | 36.08242 | -115.15544 | 2103 ft | 15 kts | 154° |
| 2026-05-07 01:00 | 36.08142 | -115.15485 | 2101 ft | 17 kts | 155° |
| 2026-05-07 01:00 | 36.08030 | -115.15422 | 2101 ft | 19 kts | 155° |
| 2026-05-07 01:01 | 36.07908 | -115.15351 | 2102 ft | 19 kts | 155° |
| 2026-05-07 01:01 | 36.07809 | -115.15252 | 2106 ft | 19 kts | 104° |
| 2026-05-07 01:01 | 36.07804 | -115.15089 | 2103 ft | 20 kts | 94° |
| 2026-05-07 01:01 | 36.07791 | -115.14906 | 2103 ft | 24 kts | 94° |
| 2026-05-07 01:02 | 36.07778 | -115.14695 | 2101 ft | 26 kts | 95° |
| 2026-05-07 01:02 | 36.07763 | -115.14468 | 2100 ft | 27 kts | 95° |
| 2026-05-07 01:02 | 36.07755 | -115.14230 | 2098 ft | 29 kts | 90° |
| 2026-05-07 01:02 | 36.07754 | -115.13975 | 2096 ft | 30 kts | 89° |
| 2026-05-07 01:03 | 36.07755 | -115.13709 | 2095 ft | 31 kts | 90° |
| 2026-05-07 01:03 | 36.07755 | -115.13433 | 2093 ft | 33 kts | 90° |
| 2026-05-07 01:03 | 36.07755 | -115.13140 | 2087 ft | 36 kts | 90° |
| 2026-05-07 01:03 | 36.07755 | -115.12847 | 2074 ft | 33 kts | 90° |
| 2026-05-07 01:04 | 36.07756 | -115.12602 | 2065 ft | 21 kts | 90° |
| 2026-05-07 01:04 | 36.07756 | -115.12401 | 2059 ft | 26 kts | 90° |
| 2026-05-07 01:04 | 36.07756 | -115.12212 | 2054 ft | 2 kts | 90° |
| 2026-05-07 01:04 | 36.07756 | -115.12209 | 2054 ft | 0 kts | 89° |
| 2026-05-07 01:06 | 36.07756 | -115.12190 | 2053 ft | 8 kts | 91° |
| 2026-05-07 01:06 | 36.07745 | -115.12146 | 2052 ft | 0 kts | 126° |
| 2026-05-07 01:07 | 36.07717 | -115.12114 | 2054 ft | 12 kts | 147° |
| 2026-05-07 01:08 | 36.07656 | -115.12133 | 2051 ft | 11 kts | 224° |
| 2026-05-07 01:08 | 36.07642 | -115.12224 | 2053 ft | 0 kts | 270° |
| 2026-05-07 01:09 | 36.07642 | -115.12568 | 2065 ft | 87 kts | 269° |
| 2026-05-07 01:09 | 36.07641 | -115.13675 | 2096 ft | 172 kts | 270° |
| 2026-05-07 01:09 | 36.07644 | -115.15321 | 2486 ft | 203 kts | 270° |
| 2026-05-07 01:09 | 36.07650 | -115.17138 | 3130 ft | 220 kts | 270° |
| 2026-05-07 01:10 | 36.07674 | -115.19094 | 3782 ft | 236 kts | 270° |
| 2026-05-07 01:10 | 36.07477 | -115.21167 | 4421 ft | 254 kts | 259° |
| 2026-05-07 01:10 | 36.07075 | -115.23451 | 4593 ft | 285 kts | 255° |
| 2026-05-07 01:10 | 36.06206 | -115.25511 | 5943 ft | 261 kts | 231° |
| 2026-05-07 01:11 | 36.04781 | -115.26800 | 7183 ft | 252 kts | 207° |
| 2026-05-07 01:11 | 36.03191 | -115.27627 | 8394 ft | 244 kts | 202° |
| 2026-05-07 01:11 | 36.01629 | -115.28289 | 9557 ft | 237 kts | 197° |
| 2026-05-07 01:11 | 36.00032 | -115.28530 | 10608 ft | 219 kts | 178° |
| 2026-05-07 01:12 | 35.98643 | -115.28201 | 11333 ft | 194 kts | 158° |
| 2026-05-07 01:12 | 35.97487 | -115.27452 | 11819 ft | 184 kts | 140° |
| 2026-05-07 01:12 | 35.96503 | -115.26470 | 12001 ft | 181 kts | 134° |
| 2026-05-07 01:12 | 35.95571 | -115.25434 | 12029 ft | 181 kts | 133° |
| 2026-05-07 01:13 | 35.94639 | -115.24387 | 12030 ft | 181 kts | 133° |
| 2026-05-07 01:13 | 35.93702 | -115.23343 | 12028 ft | 182 kts | 133° |
| 2026-05-07 01:13 | 35.92761 | -115.22302 | 12029 ft | 182 kts | 133° |
| 2026-05-07 01:13 | 35.91838 | -115.21242 | 12030 ft | 180 kts | 128° |
| 2026-05-07 01:14 | 35.91066 | -115.20043 | 12032 ft | 177 kts | 118° |
| 2026-05-07 01:14 | 35.90419 | -115.18774 | 12027 ft | 177 kts | 115° |
| 2026-05-07 01:14 | 35.89792 | -115.17475 | 12033 ft | 176 kts | 114° |
| 2026-05-07 01:14 | 35.89171 | -115.16184 | 12026 ft | 174 kts | 114° |
| 2026-05-07 01:15 | 35.88554 | -115.14902 | 12023 ft | 174 kts | 114° |
| 2026-05-07 01:15 | 35.87936 | -115.13624 | 12021 ft | 173 kts | 114° |
| 2026-05-07 01:15 | 35.87317 | -115.12345 | 12022 ft | 174 kts | 114° |
| 2026-05-07 01:15 | 35.86778 | -115.11032 | 12010 ft | 168 kts | 99° |
| 2026-05-07 01:16 | 35.86649 | -115.09641 | 12033 ft | 162 kts | 82° |
| 2026-05-07 01:16 | 35.86714 | -115.08161 | 12108 ft | 192 kts | 79° |
| 2026-05-07 01:16 | 35.86843 | -115.06328 | 12046 ft | 240 kts | 80° |
| 2026-05-07 01:16 | 35.86981 | -115.04128 | 12265 ft | 274 kts | 82° |
| 2026-05-07 01:17 | 35.87124 | -115.01653 | 12673 ft | 304 kts | 83° |
| 2026-05-07 01:17 | 35.87269 | -114.98966 | 13308 ft | 322 kts | 83° |
| 2026-05-07 01:17 | 35.87416 | -114.96177 | 14255 ft | 329 kts | 83° |
| 2026-05-07 01:17 | 35.87567 | -114.93337 | 15165 ft | 336 kts | 83° |
| 2026-05-07 01:18 | 35.87722 | -114.90430 | 16084 ft | 342 kts | 83° |
| 2026-05-07 01:18 | 35.87880 | -114.87479 | 17011 ft | 348 kts | 83° |
| 2026-05-07 01:18 | 35.88042 | -114.84471 | 17957 ft | 354 kts | 83° |
| 2026-05-07 01:18 | 35.88203 | -114.81462 | 18803 ft | 359 kts | 83° |
| 2026-05-07 01:19 | 35.88367 | -114.78374 | 19639 ft | 363 kts | 83° |
| 2026-05-07 01:19 | 35.88533 | -114.75255 | 20480 ft | 366 kts | 83° |
| 2026-05-07 01:19 | 35.88699 | -114.72107 | 21307 ft | 370 kts | 83° |
| 2026-05-07 01:19 | 35.88866 | -114.68935 | 22140 ft | 373 kts | 83° |
| 2026-05-07 01:20 | 35.89034 | -114.65726 | 22958 ft | 376 kts | 83° |
| 2026-05-07 01:20 | 35.89203 | -114.62490 | 23678 ft | 381 kts | 83° |
| 2026-05-07 01:20 | 35.89372 | -114.59216 | 24311 ft | 385 kts | 83° |
| 2026-05-07 01:20 | 35.89541 | -114.55952 | 24924 ft | 388 kts | 83° |
| 2026-05-07 01:21 | 35.89688 | -114.52611 | 25536 ft | 393 kts | 84° |
| 2026-05-07 01:21 | 35.89712 | -114.49224 | 26146 ft | 397 kts | 86° |
| 2026-05-07 01:21 | 35.89695 | -114.45810 | 26731 ft | 400 kts | 86° |
| 2026-05-07 01:21 | 35.89673 | -114.42365 | 27294 ft | 404 kts | 86° |
| 2026-05-07 01:22 | 35.89650 | -114.38889 | 27862 ft | 407 kts | 86° |
| 2026-05-07 01:22 | 35.89628 | -114.35381 | 28402 ft | 411 kts | 86° |
| 2026-05-07 01:22 | 35.89606 | -114.31844 | 28950 ft | 414 kts | 86° |
| 2026-05-07 01:22 | 35.89583 | -114.28275 | 29492 ft | 417 kts | 86° |
| 2026-05-07 01:23 | 35.89559 | -114.24692 | 30017 ft | 420 kts | 86° |
| 2026-05-07 01:23 | 35.89535 | -114.21130 | 30492 ft | 422 kts | 86° |
| 2026-05-07 01:23 | 35.89509 | -114.17520 | 31099 ft | 420 kts | 86° |
| 2026-05-07 01:23 | 35.89481 | -114.13935 | 31690 ft | 418 kts | 86° |
| 2026-05-07 01:24 | 35.89454 | -114.10354 | 32243 ft | 417 kts | 86° |
| 2026-05-07 01:24 | 35.89425 | -114.06789 | 32852 ft | 415 kts | 86° |
| 2026-05-07 01:24 | 35.89395 | -114.03235 | 33433 ft | 413 kts | 85° |
| 2026-05-07 01:24 | 35.89365 | -113.99698 | 33983 ft | 412 kts | 85° |
| 2026-05-07 01:25 | 35.89334 | -113.96179 | 34419 ft | 410 kts | 85° |
| 2026-05-07 01:25 | 35.89303 | -113.92656 | 34789 ft | 412 kts | 85° |
| 2026-05-07 01:25 | 35.89270 | -113.89165 | 34909 ft | 413 kts | 86° |
| 2026-05-07 01:26 | 35.89201 | -113.82104 | 34919 ft | 412 kts | 86° |
| 2026-05-07 01:26 | 35.89128 | -113.75039 | 34921 ft | 412 kts | 86° |
| 2026-05-07 01:27 | 35.89051 | -113.68009 | 34938 ft | 411 kts | 86° |
| 2026-05-07 01:27 | 35.88972 | -113.60955 | 34935 ft | 412 kts | 86° |
| 2026-05-07 01:28 | 35.88836 | -113.53971 | 34940 ft | 412 kts | 90° |
| 2026-05-07 01:28 | 35.87978 | -113.46930 | 34949 ft | 417 kts | 95° |
| 2026-05-07 01:29 | 35.86958 | -113.39885 | 34944 ft | 418 kts | 95° |
| 2026-05-07 01:29 | 35.85936 | -113.32819 | 34959 ft | 419 kts | 95° |
| 2026-05-07 01:30 | 35.84916 | -113.25780 | 34973 ft | 419 kts | 95° |
| 2026-05-07 01:30 | 35.83888 | -113.18719 | 34972 ft | 418 kts | 95° |
| 2026-05-07 01:31 | 35.82861 | -113.11666 | 34981 ft | 418 kts | 95° |
| 2026-05-07 01:31 | 35.81829 | -113.04615 | 34994 ft | 419 kts | 95° |
| 2026-05-07 01:32 | 35.80798 | -112.97601 | 35007 ft | 419 kts | 95° |
| 2026-05-07 01:32 | 35.79757 | -112.90544 | 35004 ft | 419 kts | 95° |
| 2026-05-07 01:33 | 35.78710 | -112.83485 | 35016 ft | 419 kts | 95° |
| 2026-05-07 01:33 | 35.77660 | -112.76428 | 35022 ft | 419 kts | 95° |
| 2026-05-07 01:34 | 35.76604 | -112.69365 | 35019 ft | 419 kts | 95° |
| 2026-05-07 01:34 | 35.75547 | -112.62303 | 35019 ft | 419 kts | 95° |
| 2026-05-07 01:35 | 35.74497 | -112.55300 | 35023 ft | 418 kts | 95° |
| 2026-05-07 01:35 | 35.73437 | -112.48263 | 35017 ft | 418 kts | 95° |
| 2026-05-07 01:36 | 35.72373 | -112.41229 | 35015 ft | 418 kts | 95° |
| 2026-05-07 01:36 | 35.71304 | -112.34191 | 35005 ft | 418 kts | 95° |
| 2026-05-07 01:37 | 35.70240 | -112.27208 | 35000 ft | 418 kts | 95° |
| 2026-05-07 01:37 | 35.69163 | -112.20178 | 34994 ft | 418 kts | 95° |
| 2026-05-07 01:38 | 35.68084 | -112.13157 | 34994 ft | 418 kts | 95° |
| 2026-05-07 01:38 | 35.66997 | -112.06112 | 34991 ft | 420 kts | 96° |
| 2026-05-07 01:39 | 35.65902 | -111.99050 | 34996 ft | 421 kts | 96° |
| 2026-05-07 01:39 | 35.64811 | -111.92034 | 34995 ft | 420 kts | 96° |
| 2026-05-07 01:40 | 35.63711 | -111.84996 | 35002 ft | 419 kts | 96° |
| 2026-05-07 01:40 | 35.63064 | -111.77931 | 34984 ft | 415 kts | 89° |